Weather at Aviosuperficie Ali Calabria

Public forecast

Using degrees Celsius for public forecast. Weather courtesy of forecast.io.

Closest aviation weather report (METAR) to Aviosuperficie Ali Calabria

Closest report is Lamezia Terme Airport, 21.8 nm (40.3 km) NE. Retrieved 2020/12/01 17:20 UTC (0 seconds ago):

LICA 011720Z AUTO 07009KT 9999 FEW074/// 11/10 Q1014

Closest aviation forecast (TAF) to Aviosuperficie Ali Calabria

Closest forecast is Lamezia Terme Airport, 21.8 nm (40.3 km) NE. Retrieved 2020/12/01 12:00 UTC (5 hours ago):

TAF LICA 011100Z 0112/0212 06014KT 9999 SCT020 TEMPO 0112/0115 4000 RA